sensor_id;sensor_type;location;lat;lon;timestamp;pressure;altitude;pressure_sealevel;temperature;humidity
64544;BME280;50936;51.660;5.616;2023-09-30T00:02:05;102131.34;;;27.10;47.56
64544;BME280;50936;51.660;5.616;2023-09-30T00:04:52;102134.31;;;27.08;47.66
64544;BME280;50936;51.660;5.616;2023-09-30T00:07:40;102131.53;;;27.08;47.66
64544;BME280;50936;51.660;5.616;2023-09-30T00:10:27;102133.28;;;27.09;47.67
64544;BME280;50936;51.660;5.616;2023-09-30T00:13:17;102127.72;;;27.09;47.72
64544;BME280;50936;51.660;5.616;2023-09-30T00:16:04;102126.16;;;27.06;47.57
64544;BME280;50936;51.660;5.616;2023-09-30T00:18:51;102144.38;;;27.09;47.45
64544;BME280;50936;51.660;5.616;2023-09-30T00:21:41;102155.47;;;27.09;47.49
64544;BME280;50936;51.660;5.616;2023-09-30T00:24:28;102151.78;;;27.08;47.52
64544;BME280;50936;51.660;5.616;2023-09-30T00:27:16;102139.84;;;27.08;47.42
64544;BME280;50936;51.660;5.616;2023-09-30T00:30:03;102137.25;;;27.06;47.46
64544;BME280;50936;51.660;5.616;2023-09-30T00:32:53;102138.81;;;27.09;47.40
64544;BME280;50936;51.660;5.616;2023-09-30T00:35:41;102150.94;;;27.08;47.47
64544;BME280;50936;51.660;5.616;2023-09-30T00:38:28;102153.91;;;27.06;47.47
64544;BME280;50936;51.660;5.616;2023-09-30T00:41:15;102167.94;;;27.05;47.30
64544;BME280;50936;51.660;5.616;2023-09-30T00:44:03;102167.94;;;27.05;47.36
64544;BME280;50936;51.660;5.616;2023-09-30T00:46:50;102167.25;;;27.03;47.33
64544;BME280;50936;51.660;5.616;2023-09-30T00:49:38;102160.69;;;27.04;47.35
64544;BME280;50936;51.660;5.616;2023-09-30T00:52:25;102164.50;;;27.03;47.22
64544;BME280;50936;51.660;5.616;2023-09-30T00:55:14;102160.69;;;27.04;47.40
64544;BME280;50936;51.660;5.616;2023-09-30T00:58:03;102162.41;;;27.05;47.15
64544;BME280;50936;51.660;5.616;2023-09-30T01:00:52;102150.44;;;27.04;47.22
64544;BME280;50936;51.660;5.616;2023-09-30T01:03:40;102140.59;;;27.02;47.51
64544;BME280;50936;51.660;5.616;2023-09-30T01:06:27;102157.25;;;27.02;47.44
64544;BME280;50936;51.660;5.616;2023-09-30T01:09:15;102162.41;;;27.05;47.20
64544;BME280;50936;51.660;5.616;2023-09-30T01:12:03;102163.81;;;27.01;47.23
64544;BME280;50936;51.660;5.616;2023-09-30T01:14:57;102172.63;;;27.04;47.08
64544;BME280;50936;51.660;5.616;2023-09-30T01:17:46;102174.72;;;27.02;47.24
64544;BME280;50936;51.660;5.616;2023-09-30T01:20:33;102171.09;;;27.02;47.22
64544;BME280;50936;51.660;5.616;2023-09-30T01:23:21;102168.31;;;27.02;47.13
64544;BME280;50936;51.660;5.616;2023-09-30T01:26:10;102177.69;;;27.01;47.32
64544;BME280;50936;51.660;5.616;2023-09-30T01:28:59;102189.81;;;27.00;47.17
64544;BME280;50936;51.660;5.616;2023-09-30T01:31:46;102188.75;;;27.01;47.17
64544;BME280;50936;51.660;5.616;2023-09-30T01:34:35;102193.47;;;27.00;47.05
64544;BME280;50936;51.660;5.616;2023-09-30T01:37:22;102197.94;;;27.01;46.97
64544;BME280;50936;51.660;5.616;2023-09-30T01:40:14;102188.75;;;27.01;47.10
64544;BME280;50936;51.660;5.616;2023-09-30T01:43:01;102194.66;;;26.98;47.10
64544;BME280;50936;51.660;5.616;2023-09-30T01:45:48;102189.13;;;26.98;47.14
64544;BME280;50936;51.660;5.616;2023-09-30T01:48:37;102192.97;;;26.97;47.03
64544;BME280;50936;51.660;5.616;2023-09-30T01:51:24;102180.81;;;26.98;47.09
64544;BME280;50936;51.660;5.616;2023-09-30T01:54:11;102172.66;;;26.96;46.99
64544;BME280;50936;51.660;5.616;2023-09-30T01:56:58;102172.88;;;26.95;46.99
64544;BME280;50936;51.660;5.616;2023-09-30T01:59:46;102171.13;;;26.94;47.07
64544;BME280;50936;51.660;5.616;2023-09-30T02:02:33;102167.34;;;26.95;47.06
64544;BME280;50936;51.660;5.616;2023-09-30T02:05:20;102174.59;;;26.96;46.94
64544;BME280;50936;51.660;5.616;2023-09-30T02:08:09;102161.78;;;26.95;46.92
64544;BME280;50936;51.660;5.616;2023-09-30T02:10:56;102168.19;;;26.95;47.00
64544;BME280;50936;51.660;5.616;2023-09-30T02:13:43;102162.66;;;26.95;47.01
64544;BME280;50936;51.660;5.616;2023-09-30T02:16:31;102172.00;;;26.94;47.02
64544;BME280;50936;51.660;5.616;2023-09-30T02:19:19;102182.22;;;26.94;46.96
64544;BME280;50936;51.660;5.616;2023-09-30T02:22:06;102197.81;;;26.95;46.96
64544;BME280;50936;51.660;5.616;2023-09-30T02:24:54;102209.09;;;26.93;46.94
64544;BME280;50936;51.660;5.616;2023-09-30T02:27:41;102194.38;;;26.93;46.89
64544;BME280;50936;51.660;5.616;2023-09-30T02:30:29;102190.72;;;26.92;47.03
64544;BME280;50936;51.660;5.616;2023-09-30T02:33:19;102192.47;;;26.93;47.05
64544;BME280;50936;51.660;5.616;2023-09-30T02:36:09;102193.31;;;26.94;46.89
64544;BME280;50936;51.660;5.616;2023-09-30T02:38:56;102188.84;;;26.93;46.80
64544;BME280;50936;51.660;5.616;2023-09-30T02:41:44;102184.31;;;26.92;46.86
64544;BME280;50936;51.660;5.616;2023-09-30T02:44:32;102185.19;;;26.92;46.86
64544;BME280;50936;51.660;5.616;2023-09-30T02:47:19;102181.53;;;26.92;46.82
64544;BME280;50936;51.660;5.616;2023-09-30T02:50:07;102176.19;;;26.90;46.88
64544;BME280;50936;51.660;5.616;2023-09-30T02:52:58;102174.09;;;26.92;46.87
64544;BME280;50936;51.660;5.616;2023-09-30T02:55:45;102168.72;;;26.91;46.91
64544;BME280;50936;51.660;5.616;2023-09-30T02:58:33;102172.56;;;26.89;46.87
64544;BME280;50936;51.660;5.616;2023-09-30T03:01:20;102169.78;;;26.89;46.79
64544;BME280;50936;51.660;5.616;2023-09-30T03:04:08;102162.50;;;26.88;46.85
64544;BME280;50936;51.660;5.616;2023-09-30T03:06:59;102164.25;;;26.89;46.82
64544;BME280;50936;51.660;5.616;2023-09-30T03:09:46;102169.78;;;26.89;46.92
64544;BME280;50936;51.660;5.616;2023-09-30T03:12:35;102174.25;;;26.91;46.75
64544;BME280;50936;51.660;5.616;2023-09-30T03:15:22;102181.22;;;26.86;46.87
64544;BME280;50936;51.660;5.616;2023-09-30T03:18:10;102169.78;;;26.89;46.81
64544;BME280;50936;51.660;5.616;2023-09-30T03:21:01;102178.28;;;26.88;46.71
64544;BME280;50936;51.660;5.616;2023-09-30T03:23:55;102187.44;;;26.88;46.83
64544;BME280;50936;51.660;5.616;2023-09-30T03:26:43;102170.50;;;26.83;46.74
64544;BME280;50936;51.660;5.616;2023-09-30T03:29:30;102162.50;;;26.88;46.74
64544;BME280;50936;51.660;5.616;2023-09-30T03:32:18;102158.38;;;26.84;46.84
64544;BME280;50936;51.660;5.616;2023-09-30T03:35:06;102152.16;;;26.82;46.92
64544;BME280;50936;51.660;5.616;2023-09-30T03:37:54;102159.41;;;26.83;46.66
64544;BME280;50936;51.660;5.616;2023-09-30T03:40:41;102177.78;;;26.84;46.70
64544;BME280;50936;51.660;5.616;2023-09-30T03:43:36;102169.47;;;26.84;46.30
64544;BME280;50936;51.660;5.616;2023-09-30T03:46:27;102153.88;;;26.83;46.70
64544;BME280;50936;51.660;5.616;2023-09-30T03:49:15;102163.25;;;26.82;46.73
64544;BME280;50936;51.660;5.616;2023-09-30T03:52:03;102163.59;;;26.79;46.63
64544;BME280;50936;51.660;5.616;2023-09-30T03:54:51;102158.72;;;26.81;46.61
64544;BME280;50936;51.660;5.616;2023-09-30T03:57:40;102157.03;;;26.80;46.69
64544;BME280;50936;51.660;5.616;2023-09-30T04:00:27;102165.34;;;26.80;46.75
64544;BME280;50936;51.660;5.616;2023-09-30T04:03:15;102164.47;;;26.80;46.67
64544;BME280;50936;51.660;5.616;2023-09-30T04:06:03;102158.94;;;26.80;46.68
64544;BME280;50936;51.660;5.616;2023-09-30T04:08:50;102154.25;;;26.80;46.62
64544;BME280;50936;51.660;5.616;2023-09-30T04:11:38;102159.13;;;26.78;46.78
64544;BME280;50936;51.660;5.616;2023-09-30T04:14:25;102164.66;;;26.78;46.70
64544;BME280;50936;51.660;5.616;2023-09-30T04:17:12;102165.69;;;26.77;46.61
64544;BME280;50936;51.660;5.616;2023-09-30T04:20:00;102174.69;;;26.79;46.46
64544;BME280;50936;51.660;5.616;2023-09-30T04:22:47;102162.25;;;26.75;46.50
64544;BME280;50936;51.660;5.616;2023-09-30T04:25:36;102164.34;;;26.73;46.51
64544;BME280;50936;51.660;5.616;2023-09-30T04:28:23;102166.03;;;26.74;46.91
64544;BME280;50936;51.660;5.616;2023-09-30T04:31:11;102166.03;;;26.74;46.70
64544;BME280;50936;51.660;5.616;2023-09-30T04:33:59;102167.78;;;26.75;46.69
64544;BME280;50936;51.660;5.616;2023-09-30T04:36:47;102173.31;;;26.75;46.69
64544;BME280;50936;51.660;5.616;2023-09-30T04:39:34;102166.03;;;26.74;46.96
64544;BME280;50936;51.660;5.616;2023-09-30T04:42:22;102182.31;;;26.77;47.11
64544;BME280;50936;51.660;5.616;2023-09-30T04:45:13;102180.63;;;26.76;47.27
64544;BME280;50936;51.660;5.616;2023-09-30T04:48:03;102186.16;;;26.76;47.15
64544;BME280;50936;51.660;5.616;2023-09-30T04:50:51;102186.16;;;26.76;47.10
64544;BME280;50936;51.660;5.616;2023-09-30T04:53:38;102190.63;;;26.77;47.12
64544;BME280;50936;51.660;5.616;2023-09-30T04:56:25;102191.69;;;26.76;47.02
64544;BME280;50936;51.660;5.616;2023-09-30T04:59:13;102187.84;;;26.77;47.11
64544;BME280;50936;51.660;5.616;2023-09-30T05:02:00;102197.25;;;26.76;47.26
64544;BME280;50936;51.660;5.616;2023-09-30T05:04:48;102200.88;;;26.77;46.93
64544;BME280;50936;51.660;5.616;2023-09-30T05:07:35;102197.25;;;26.76;46.93
64544;BME280;50936;51.660;5.616;2023-09-30T05:10:22;102202.78;;;26.76;46.91
64544;BME280;50936;51.660;5.616;2023-09-30T05:13:11;102201.91;;;26.76;46.98
64544;BME280;50936;51.660;5.616;2023-09-30T05:15:59;102203.13;;;26.73;47.07
64544;BME280;50936;51.660;5.616;2023-09-30T05:18:46;102203.81;;;26.75;46.95
64544;BME280;50936;51.660;5.616;2023-09-30T05:21:35;102207.63;;;26.74;47.07
64544;BME280;50936;51.660;5.616;2023-09-30T05:24:23;102201.38;;;26.72;46.74
64544;BME280;50936;51.660;5.616;2023-09-30T05:27:11;102205.22;;;26.71;47.06
64544;BME280;50936;51.660;5.616;2023-09-30T05:29:58;102205.22;;;26.71;46.98
64544;BME280;50936;51.660;5.616;2023-09-30T05:32:46;102209.88;;;26.70;47.03
64544;BME280;50936;51.660;5.616;2023-09-30T05:35:34;102204.72;;;26.67;47.04
64544;BME280;50936;51.660;5.616;2023-09-30T05:38:21;102205.56;;;26.68;47.20
64544;BME280;50936;51.660;5.616;2023-09-30T05:41:09;102210.09;;;26.69;47.02
64544;BME280;50936;51.660;5.616;2023-09-30T05:43:58;102203.66;;;26.68;47.03
64544;BME280;50936;51.660;5.616;2023-09-30T05:46:46;102218.41;;;26.69;47.17
64544;BME280;50936;51.660;5.616;2023-09-30T05:49:34;102217.50;;;26.68;47.24
64544;BME280;50936;51.660;5.616;2023-09-30T05:52:23;102221.84;;;26.71;47.21
64544;BME280;50936;51.660;5.616;2023-09-30T05:55:10;102220.13;;;26.70;47.28
64544;BME280;50936;51.660;5.616;2023-09-30T05:57:57;102216.66;;;26.68;47.47
64544;BME280;50936;51.660;5.616;2023-09-30T06:00:47;102206.25;;;26.70;47.34
64544;BME280;50936;51.660;5.616;2023-09-30T06:03:35;102212.84;;;26.69;47.58
64544;BME280;50936;51.660;5.616;2023-09-30T06:06:26;102209.03;;;26.70;47.27
64544;BME280;50936;51.660;5.616;2023-09-30T06:09:16;102209.88;;;26.70;47.39
64544;BME280;50936;51.660;5.616;2023-09-30T06:12:03;102217.34;;;26.70;47.27
64544;BME280;50936;51.660;5.616;2023-09-30T06:14:53;102214.56;;;26.70;47.15
64544;BME280;50936;51.660;5.616;2023-09-30T06:17:40;102209.41;;;26.67;47.00
64544;BME280;50936;51.660;5.616;2023-09-30T06:20:27;102217.72;;;26.67;46.89
64544;BME280;50936;51.660;5.616;2023-09-30T06:23:17;102219.59;;;26.66;47.14
64544;BME280;50936;51.660;5.616;2023-09-30T06:26:05;102217.00;;;26.65;47.09
64544;BME280;50936;51.660;5.616;2023-09-30T06:28:52;102209.75;;;26.64;47.01
64544;BME280;50936;51.660;5.616;2023-09-30T06:31:41;102204.22;;;26.64;47.01
64544;BME280;50936;51.660;5.616;2023-09-30T06:34:29;102195.22;;;26.62;46.88
64544;BME280;50936;51.660;5.616;2023-09-30T06:37:17;102195.22;;;26.62;46.79
64544;BME280;50936;51.660;5.616;2023-09-30T06:40:08;102210.09;;;26.61;46.92
64544;BME280;50936;51.660;5.616;2023-09-30T06:42:59;102214.78;;;26.60;46.94
64544;BME280;50936;51.660;5.616;2023-09-30T06:45:48;102225.00;;;26.60;46.82
64544;BME280;50936;51.660;5.616;2023-09-30T06:48:36;102226.72;;;26.61;47.12
64544;BME280;50936;51.660;5.616;2023-09-30T06:51:24;102233.31;;;26.60;47.07
64544;BME280;50936;51.660;5.616;2023-09-30T06:54:13;102241.63;;;26.60;47.27
64544;BME280;50936;51.660;5.616;2023-09-30T06:57:00;102247.16;;;26.60;47.19
64544;BME280;50936;51.660;5.616;2023-09-30T06:59:48;102253.41;;;26.62;47.12
64544;BME280;50936;51.660;5.616;2023-09-30T07:02:35;102258.94;;;26.62;47.25
64544;BME280;50936;51.660;5.616;2023-09-30T07:05:23;102275.75;;;26.60;47.08
64544;BME280;50936;51.660;5.616;2023-09-30T07:08:10;102269.31;;;26.60;47.11
64544;BME280;50936;51.660;5.616;2023-09-30T07:10:58;102277.47;;;26.61;47.14
64544;BME280;50936;51.660;5.616;2023-09-30T07:13:45;102268.97;;;26.63;46.92
64544;BME280;50936;51.660;5.616;2023-09-30T07:16:32;102265.34;;;26.62;46.92
64544;BME280;50936;51.660;5.616;2023-09-30T07:19:19;102278.34;;;26.62;47.00
64544;BME280;50936;51.660;5.616;2023-09-30T07:22:07;102275.41;;;26.63;46.97
64544;BME280;50936;51.660;5.616;2023-09-30T07:24:54;102275.91;;;26.67;47.34
64544;BME280;50936;51.660;5.616;2023-09-30T07:27:43;102273.13;;;26.67;47.31
64544;BME280;50936;51.660;5.616;2023-09-30T07:30:30;102287.84;;;26.67;47.35
64544;BME280;50936;51.660;5.616;2023-09-30T07:33:18;102298.09;;;26.67;47.38
64544;BME280;50936;51.660;5.616;2023-09-30T07:36:05;102305.34;;;26.68;47.21
64544;BME280;50936;51.660;5.616;2023-09-30T07:38:53;102310.03;;;26.67;47.24
64544;BME280;50936;51.660;5.616;2023-09-30T07:41:41;102311.72;;;26.68;47.15
64544;BME280;50936;51.660;5.616;2023-09-30T07:44:28;102319.19;;;26.68;47.37
64544;BME280;50936;51.660;5.616;2023-09-30T07:47:15;102320.94;;;26.69;47.37
64544;BME280;50936;51.660;5.616;2023-09-30T07:50:03;102329.25;;;26.69;47.44
64544;BME280;50936;51.660;5.616;2023-09-30T07:52:57;102327.50;;;26.68;47.44
64544;BME280;50936;51.660;5.616;2023-09-30T07:55:45;102319.88;;;26.70;47.30
64544;BME280;50936;51.660;5.616;2023-09-30T07:58:32;102317.78;;;26.72;47.34
64544;BME280;50936;51.660;5.616;2023-09-30T08:01:20;102318.84;;;26.71;47.43
64544;BME280;50936;51.660;5.616;2023-09-30T08:04:08;102305.00;;;26.71;47.30
64544;BME280;50936;51.660;5.616;2023-09-30T08:06:55;102306.69;;;26.72;47.61
64544;BME280;50936;51.660;5.616;2023-09-30T08:09:42;102310.53;;;26.71;47.52
64544;BME280;50936;51.660;5.616;2023-09-30T08:12:29;102309.28;;;26.74;47.37
64544;BME280;50936;51.660;5.616;2023-09-30T08:15:17;102310.53;;;26.71;47.43
64544;BME280;50936;51.660;5.616;2023-09-30T08:18:04;102306.69;;;26.72;47.27
64544;BME280;50936;51.660;5.616;2023-09-30T08:20:53;102306.69;;;26.72;47.28
64544;BME280;50936;51.660;5.616;2023-09-30T08:23:40;102302.91;;;26.73;47.35
64544;BME280;50936;51.660;5.616;2023-09-30T08:26:27;102309.47;;;26.72;47.19
64544;BME280;50936;51.660;5.616;2023-09-30T08:29:14;102299.94;;;26.75;47.20
64544;BME280;50936;51.660;5.616;2023-09-30T08:32:02;102295.44;;;26.74;47.41
64544;BME280;50936;51.660;5.616;2023-09-30T08:34:50;102286.28;;;26.73;47.30
64544;BME280;50936;51.660;5.616;2023-09-30T08:37:37;102281.75;;;26.72;47.21
64544;BME280;50936;51.660;5.616;2023-09-30T08:40:24;102292.84;;;26.72;47.26
64544;BME280;50936;51.660;5.616;2023-09-30T08:43:11;102290.06;;;26.72;47.17
64544;BME280;50936;51.660;5.616;2023-09-30T08:46:00;102292.50;;;26.75;46.98
64544;BME280;50936;51.660;5.616;2023-09-30T08:48:49;102295.25;;;26.75;47.21
64544;BME280;50936;51.660;5.616;2023-09-30T08:51:37;102297.19;;;26.75;47.13
64544;BME280;50936;51.660;5.616;2023-09-30T08:54:25;102293.19;;;26.77;47.26
64544;BME280;50936;51.660;5.616;2023-09-30T08:57:13;102285.03;;;26.76;47.31
64544;BME280;50936;51.660;5.616;2023-09-30T09:00:03;102273.72;;;26.94;46.94
64544;BME280;50936;51.660;5.616;2023-09-30T09:02:51;102286.56;;;26.86;47.17
64544;BME280;50936;51.660;5.616;2023-09-30T09:05:38;102298.38;;;26.80;47.35
64544;BME280;50936;51.660;5.616;2023-09-30T09:08:26;102302.16;;;26.79;47.28
64544;BME280;50936;51.660;5.616;2023-09-30T09:11:14;102291.97;;;26.80;47.41
64544;BME280;50936;51.660;5.616;2023-09-30T09:14:01;102294.03;;;26.78;47.43
64544;BME280;50936;51.660;5.616;2023-09-30T09:16:53;102305.63;;;26.81;47.81
64544;BME280;50936;51.660;5.616;2023-09-30T09:19:42;102316.53;;;26.83;47.61
64544;BME280;50936;51.660;5.616;2023-09-30T09:22:42;102311.69;;;26.85;47.59
64544;BME280;50936;51.660;5.616;2023-09-30T09:25:37;102318.78;;;26.87;47.50
64544;BME280;50936;51.660;5.616;2023-09-30T09:28:34;102321.56;;;26.87;47.65
64544;BME280;50936;51.660;5.616;2023-09-30T09:31:28;102331.59;;;26.88;47.72
64544;BME280;50936;51.660;5.616;2023-09-30T09:34:22;102331.59;;;26.88;47.54
64544;BME280;50936;51.660;5.616;2023-09-30T09:40:01;102340.78;;;26.89;47.59
64544;BME280;50936;51.660;5.616;2023-09-30T09:42:51;102346.84;;;26.93;47.77
64544;BME280;50936;51.660;5.616;2023-09-30T09:45:41;102348.91;;;26.91;47.92
64544;BME280;50936;51.660;5.616;2023-09-30T09:48:30;102354.09;;;26.94;47.80
64544;BME280;50936;51.660;5.616;2023-09-30T09:51:18;102348.56;;;26.94;47.80
64544;BME280;50936;51.660;5.616;2023-09-30T09:54:07;102345.78;;;26.94;47.94
64544;BME280;50936;51.660;5.616;2023-09-30T09:56:56;102335.53;;;26.94;47.87
64544;BME280;50936;51.660;5.616;2023-09-30T09:59:47;102347.81;;;27.00;47.79
64544;BME280;50936;51.660;5.616;2023-09-30T10:02:36;102349.56;;;27.01;47.63
64544;BME280;50936;51.660;5.616;2023-09-30T10:05:23;102356.84;;;27.02;47.70
64544;BME280;50936;51.660;5.616;2023-09-30T10:08:14;102347.47;;;27.03;47.90
64544;BME280;50936;51.660;5.616;2023-09-30T10:11:05;102342.63;;;27.05;47.62
64544;BME280;50936;51.660;5.616;2023-09-30T10:13:54;102349.22;;;27.04;47.59
64544;BME280;50936;51.660;5.616;2023-09-30T10:19:29;102360.31;;;27.04;47.69
64544;BME280;50936;51.660;5.616;2023-09-30T10:22:22;102372.09;;;27.06;47.81
64544;BME280;50936;51.660;5.616;2023-09-30T10:25:33;102359.59;;;27.10;47.71
64544;BME280;50936;51.660;5.616;2023-09-30T10:28:41;102346.41;;;27.12;47.68
64544;BME280;50936;51.660;5.616;2023-09-30T10:31:49;102337.06;;;27.13;47.70
64544;BME280;50936;51.660;5.616;2023-09-30T10:34:37;102336.38;;;27.11;47.64
64544;BME280;50936;51.660;5.616;2023-09-30T10:37:25;102323.34;;;27.12;47.65
64544;BME280;50936;51.660;5.616;2023-09-30T10:40:32;102311.72;;;27.16;47.76
64544;BME280;50936;51.660;5.616;2023-09-30T10:43:32;102312.78;;;27.15;47.74
64544;BME280;50936;51.660;5.616;2023-09-30T10:49:17;102305.88;;;27.11;47.68
64544;BME280;50936;51.660;5.616;2023-09-30T10:52:04;102316.56;;;27.14;47.81
64544;BME280;50936;51.660;5.616;2023-09-30T10:54:52;102310.34;;;27.12;47.81
64544;BME280;50936;51.660;5.616;2023-09-30T10:57:40;102312.78;;;27.15;47.71
64544;BME280;50936;51.660;5.616;2023-09-30T11:00:28;102308.94;;;27.16;47.62
64544;BME280;50936;51.660;5.616;2023-09-30T11:03:19;102305.13;;;27.17;47.82
64544;BME280;50936;51.660;5.616;2023-09-30T11:06:11;102299.59;;;27.17;47.59
64544;BME280;50936;51.660;5.616;2023-09-30T11:09:01;102302.34;;;27.17;47.76
64544;BME280;50936;51.660;5.616;2023-09-30T11:11:51;102301.31;;;27.18;47.91
64544;BME280;50936;51.660;5.616;2023-09-30T11:14:41;102306.50;;;27.21;47.89
64544;BME280;50936;51.660;5.616;2023-09-30T11:17:28;102306.66;;;27.20;47.86
64544;BME280;50936;51.660;5.616;2023-09-30T11:20:17;102305.63;;;27.21;47.86
64544;BME280;50936;51.660;5.616;2023-09-30T11:23:08;102308.22;;;27.22;47.98
64544;BME280;50936;51.660;5.616;2023-09-30T11:25:56;102313.59;;;27.24;48.00
64544;BME280;50936;51.660;5.616;2023-09-30T11:28:44;102317.59;;;27.21;48.26
64544;BME280;50936;51.660;5.616;2023-09-30T11:31:31;102308.06;;;27.24;48.09
64544;BME280;50936;51.660;5.616;2023-09-30T11:34:34;102304.94;;;27.27;48.01
64544;BME280;50936;51.660;5.616;2023-09-30T11:37:23;102304.06;;;27.26;48.24
64544;BME280;50936;51.660;5.616;2023-09-30T11:40:12;102300.25;;;27.27;48.23
64544;BME280;50936;51.660;5.616;2023-09-30T11:43:09;102278.75;;;27.30;48.44
64544;BME280;50936;51.660;5.616;2023-09-30T11:48:57;102283.06;;;27.32;48.32
64544;BME280;50936;51.660;5.616;2023-09-30T11:51:48;102273.03;;;27.31;48.39
64544;BME280;50936;51.660;5.616;2023-09-30T11:54:37;102273.88;;;27.32;48.17
64544;BME280;50936;51.660;5.616;2023-09-30T11:57:30;102273.88;;;27.32;48.63
64544;BME280;50936;51.660;5.616;2023-09-30T12:00:18;102284.97;;;27.32;48.54
64544;BME280;50936;51.660;5.616;2023-09-30T12:03:05;102293.31;;;27.32;48.78
64544;BME280;50936;51.660;5.616;2023-09-30T12:05:54;102296.94;;;27.32;48.67
64544;BME280;50936;51.660;5.616;2023-09-30T12:08:42;102293.13;;;27.33;48.99
64544;BME280;50936;51.660;5.616;2023-09-30T12:11:30;102303.31;;;27.33;49.14
64544;BME280;50936;51.660;5.616;2023-09-30T12:14:17;102305.94;;;27.34;49.04
64544;BME280;50936;51.660;5.616;2023-09-30T12:17:04;102303.81;;;27.36;49.21
64544;BME280;50936;51.660;5.616;2023-09-30T12:19:52;102295.34;;;27.38;49.09
64544;BME280;50936;51.660;5.616;2023-09-30T12:22:39;102295.34;;;27.38;49.10
64544;BME280;50936;51.660;5.616;2023-09-30T12:25:26;102285.97;;;27.39;49.25
64544;BME280;50936;51.660;5.616;2023-09-30T12:28:14;102278.69;;;27.38;49.44
64544;BME280;50936;51.660;5.616;2023-09-30T12:31:02;102265.50;;;27.40;49.28
64544;BME280;50936;51.660;5.616;2023-09-30T12:33:50;102250.94;;;27.38;49.34
64544;BME280;50936;51.660;5.616;2023-09-30T12:36:39;102261.69;;;27.41;49.33
64544;BME280;50936;51.660;5.616;2023-09-30T12:39:27;102240.53;;;27.40;49.36
64544;BME280;50936;51.660;5.616;2023-09-30T12:42:17;102241.06;;;27.58;48.69
64544;BME280;50936;51.660;5.616;2023-09-30T12:45:05;102234.53;;;27.51;48.81
64544;BME280;50936;51.660;5.616;2023-09-30T12:47:52;102235.28;;;27.45;48.97
64544;BME280;50936;51.660;5.616;2023-09-30T12:50:41;102240.34;;;27.41;49.25
64544;BME280;50936;51.660;5.616;2023-09-30T12:53:28;102246.75;;;27.42;49.08
64544;BME280;50936;51.660;5.616;2023-09-30T12:56:15;102239.66;;;27.39;49.29
64544;BME280;50936;51.660;5.616;2023-09-30T12:59:02;102239.84;;;27.38;49.14
64544;BME280;50936;51.660;5.616;2023-09-30T13:01:50;102241.59;;;27.39;48.93
64544;BME280;50936;51.660;5.616;2023-09-30T13:04:37;102236.91;;;27.39;48.99
64544;BME280;50936;51.660;5.616;2023-09-30T13:07:29;102244.19;;;27.40;48.88
64544;BME280;50936;51.660;5.616;2023-09-30T13:10:17;102243.28;;;27.40;48.86
64544;BME280;50936;51.660;5.616;2023-09-30T13:13:05;102230.50;;;27.39;48.85
64544;BME280;50936;51.660;5.616;2023-09-30T13:15:52;102230.50;;;27.39;48.78
64544;BME280;50936;51.660;5.616;2023-09-30T13:18:39;102229.59;;;27.38;48.61
64544;BME280;50936;51.660;5.616;2023-09-30T13:21:27;102234.97;;;27.40;48.76
64544;BME280;50936;51.660;5.616;2023-09-30T13:24:15;102232.59;;;27.37;48.74
64544;BME280;50936;51.660;5.616;2023-09-30T13:27:02;102234.47;;;27.36;48.42
64544;BME280;50936;51.660;5.616;2023-09-30T13:29:49;102243.28;;;27.40;48.21
64544;BME280;50936;51.660;5.616;2023-09-30T13:32:36;102243.69;;;27.37;48.26
64544;BME280;50936;51.660;5.616;2023-09-30T13:35:24;102241.59;;;27.39;48.22
64544;BME280;50936;51.660;5.616;2023-09-30T13:38:11;102240.69;;;27.38;47.99
64544;BME280;50936;51.660;5.616;2023-09-30T13:40:59;102236.03;;;27.39;47.89
64544;BME280;50936;51.660;5.616;2023-09-30T13:43:46;102224.94;;;27.39;47.91
64544;BME280;50936;51.660;5.616;2023-09-30T13:46:33;102220.44;;;27.38;47.61
64544;BME280;50936;51.660;5.616;2023-09-30T13:49:21;102202.75;;;27.39;47.74
64544;BME280;50936;51.660;5.616;2023-09-30T13:52:08;102203.13;;;27.36;47.42
64544;BME280;50936;51.660;5.616;2023-09-30T13:54:55;102206.56;;;27.38;47.58
64544;BME280;50936;51.660;5.616;2023-09-30T13:57:42;102210.41;;;27.37;47.67
64544;BME280;50936;51.660;5.616;2023-09-30T14:00:30;102204.84;;;27.37;47.56
64544;BME280;50936;51.660;5.616;2023-09-30T14:03:18;102203.97;;;27.36;47.40
64544;BME280;50936;51.660;5.616;2023-09-30T14:06:10;102210.00;;;27.40;47.15
64544;BME280;50936;51.660;5.616;2023-09-30T14:08:58;102200.16;;;27.37;47.13
64544;BME280;50936;51.660;5.616;2023-09-30T14:11:46;102203.78;;;27.38;47.25
64544;BME280;50936;51.660;5.616;2023-09-30T14:14:34;102206.94;;;27.35;47.17
64544;BME280;50936;51.660;5.616;2023-09-30T14:17:22;102211.44;;;27.36;46.87
64544;BME280;50936;51.660;5.616;2023-09-30T14:20:10;102204.84;;;27.37;46.84
64544;BME280;50936;51.660;5.616;2023-09-30T14:22:59;102197.19;;;27.39;46.87
64544;BME280;50936;51.660;5.616;2023-09-30T14:25:46;102192.88;;;27.36;46.73
64544;BME280;50936;51.660;5.616;2023-09-30T14:28:33;102191.66;;;27.39;46.72
64544;BME280;50936;51.660;5.616;2023-09-30T14:31:21;102180.25;;;27.34;46.76
64544;BME280;50936;51.660;5.616;2023-09-30T14:34:08;102184.75;;;27.35;46.74
64544;BME280;50936;51.660;5.616;2023-09-30T14:36:55;102190.31;;;27.35;46.67
64544;BME280;50936;51.660;5.616;2023-09-30T14:39:43;102193.94;;;27.35;46.51
64544;BME280;50936;51.660;5.616;2023-09-30T14:42:30;102189.44;;;27.34;46.24
64544;BME280;50936;51.660;5.616;2023-09-30T14:45:17;102183.03;;;27.34;46.43
64544;BME280;50936;51.660;5.616;2023-09-30T14:48:06;102182.00;;;27.35;46.40
64544;BME280;50936;51.660;5.616;2023-09-30T14:50:54;102184.75;;;27.35;46.29
64544;BME280;50936;51.660;5.616;2023-09-30T14:53:42;102190.31;;;27.35;46.31